sensor_id;sensor_type;location;lat;lon;timestamp;P1;durP1;ratioP1;P2;durP2;ratioP2
55069;SDS011;40967;52.070;8.596;2022-07-22T00:02:03;4.17;;;2.97;;
55069;SDS011;40967;52.070;8.596;2022-07-22T00:04:28;4.23;;;3.23;;
55069;SDS011;40967;52.070;8.596;2022-07-22T00:06:53;4.70;;;3.50;;
55069;SDS011;40967;52.070;8.596;2022-07-22T00:09:19;5.10;;;3.87;;
55069;SDS011;40967;52.070;8.596;2022-07-22T00:11:44;4.53;;;3.53;;
55069;SDS011;40967;52.070;8.596;2022-07-22T00:14:09;7.07;;;5.77;;
55069;SDS011;40967;52.070;8.596;2022-07-22T00:16:35;7.00;;;6.17;;
55069;SDS011;40967;52.070;8.596;2022-07-22T00:19:00;6.60;;;5.63;;
55069;SDS011;40967;52.070;8.596;2022-07-22T00:21:26;6.00;;;4.80;;
55069;SDS011;40967;52.070;8.596;2022-07-22T00:23:51;5.87;;;4.33;;
55069;SDS011;40967;52.070;8.596;2022-07-22T00:26:16;6.20;;;4.33;;
55069;SDS011;40967;52.070;8.596;2022-07-22T00:28:42;7.07;;;4.97;;
55069;SDS011;40967;52.070;8.596;2022-07-22T00:31:07;7.13;;;5.73;;
55069;SDS011;40967;52.070;8.596;2022-07-22T00:33:32;8.40;;;5.33;;
55069;SDS011;40967;52.070;8.596;2022-07-22T00:35:58;6.93;;;4.53;;
55069;SDS011;40967;52.070;8.596;2022-07-22T00:38:23;6.63;;;3.80;;
55069;SDS011;40967;52.070;8.596;2022-07-22T00:40:48;4.93;;;3.47;;
55069;SDS011;40967;52.070;8.596;2022-07-22T00:43:14;5.67;;;3.23;;
55069;SDS011;40967;52.070;8.596;2022-07-22T00:45:39;4.70;;;2.70;;
55069;SDS011;40967;52.070;8.596;2022-07-22T00:48:05;5.20;;;3.10;;
55069;SDS011;40967;52.070;8.596;2022-07-22T00:50:30;4.32;;;2.60;;
55069;SDS011;40967;52.070;8.596;2022-07-22T00:52:56;3.90;;;2.20;;
55069;SDS011;40967;52.070;8.596;2022-07-22T00:55:21;4.73;;;2.40;;
55069;SDS011;40967;52.070;8.596;2022-07-22T00:57:47;3.30;;;2.00;;
55069;SDS011;40967;52.070;8.596;2022-07-22T01:00:14;3.60;;;2.27;;
55069;SDS011;40967;52.070;8.596;2022-07-22T01:02:41;3.20;;;1.70;;
55069;SDS011;40967;52.070;8.596;2022-07-22T01:05:07;2.50;;;1.70;;
55069;SDS011;40967;52.070;8.596;2022-07-22T01:07:32;2.27;;;1.20;;
55069;SDS011;40967;52.070;8.596;2022-07-22T01:09:58;3.90;;;2.00;;
55069;SDS011;40967;52.070;8.596;2022-07-22T01:12:23;2.83;;;1.60;;
55069;SDS011;40967;52.070;8.596;2022-07-22T01:14:49;3.22;;;1.98;;
55069;SDS011;40967;52.070;8.596;2022-07-22T01:17:14;3.60;;;2.20;;
55069;SDS011;40967;52.070;8.596;2022-07-22T01:19:40;3.13;;;2.00;;
55069;SDS011;40967;52.070;8.596;2022-07-22T01:22:05;1.90;;;1.20;;
55069;SDS011;40967;52.070;8.596;2022-07-22T01:24:31;1.95;;;1.13;;
55069;SDS011;40967;52.070;8.596;2022-07-22T01:26:57;3.03;;;1.90;;
55069;SDS011;40967;52.070;8.596;2022-07-22T01:29:23;4.97;;;3.00;;
55069;SDS011;40967;52.070;8.596;2022-07-22T01:31:48;5.07;;;2.92;;
55069;SDS011;40967;52.070;8.596;2022-07-22T01:34:13;5.78;;;3.30;;
55069;SDS011;40967;52.070;8.596;2022-07-22T01:36:39;4.68;;;3.08;;
55069;SDS011;40967;52.070;8.596;2022-07-22T01:39:04;4.40;;;2.97;;
55069;SDS011;40967;52.070;8.596;2022-07-22T01:41:30;5.15;;;3.25;;
55069;SDS011;40967;52.070;8.596;2022-07-22T01:43:55;8.43;;;3.90;;
55069;SDS011;40967;52.070;8.596;2022-07-22T01:46:21;5.10;;;3.47;;
55069;SDS011;40967;52.070;8.596;2022-07-22T01:48:48;5.25;;;2.95;;
55069;SDS011;40967;52.070;8.596;2022-07-22T01:51:13;4.97;;;2.73;;
55069;SDS011;40967;52.070;8.596;2022-07-22T01:53:38;6.00;;;3.43;;
55069;SDS011;40967;52.070;8.596;2022-07-22T01:56:04;4.07;;;2.50;;
55069;SDS011;40967;52.070;8.596;2022-07-22T01:58:30;4.15;;;2.35;;
55069;SDS011;40967;52.070;8.596;2022-07-22T02:00:55;4.43;;;2.30;;
55069;SDS011;40967;52.070;8.596;2022-07-22T02:03:20;2.90;;;1.63;;
55069;SDS011;40967;52.070;8.596;2022-07-22T02:05:46;2.50;;;1.53;;
55069;SDS011;40967;52.070;8.596;2022-07-22T02:08:11;3.83;;;1.90;;
55069;SDS011;40967;52.070;8.596;2022-07-22T02:10:37;3.05;;;1.65;;
55069;SDS011;40967;52.070;8.596;2022-07-22T02:13:03;2.28;;;1.50;;
55069;SDS011;40967;52.070;8.596;2022-07-22T02:15:28;3.20;;;1.90;;
55069;SDS011;40967;52.070;8.596;2022-07-22T02:17:54;2.88;;;1.60;;
55069;SDS011;40967;52.070;8.596;2022-07-22T02:20:20;5.10;;;2.57;;
55069;SDS011;40967;52.070;8.596;2022-07-22T02:22:45;4.37;;;2.50;;
55069;SDS011;40967;52.070;8.596;2022-07-22T02:25:11;4.60;;;2.67;;
55069;SDS011;40967;52.070;8.596;2022-07-22T02:27:36;3.50;;;2.07;;
55069;SDS011;40967;52.070;8.596;2022-07-22T02:30:03;4.00;;;1.83;;
55069;SDS011;40967;52.070;8.596;2022-07-22T02:32:30;4.90;;;2.50;;
55069;SDS011;40967;52.070;8.596;2022-07-22T02:34:55;4.45;;;2.42;;
55069;SDS011;40967;52.070;8.596;2022-07-22T02:37:21;3.65;;;2.45;;
55069;SDS011;40967;52.070;8.596;2022-07-22T02:39:46;6.28;;;3.67;;
55069;SDS011;40967;52.070;8.596;2022-07-22T02:42:12;4.95;;;2.72;;
55069;SDS011;40967;52.070;8.596;2022-07-22T02:44:37;4.00;;;2.42;;
55069;SDS011;40967;52.070;8.596;2022-07-22T02:47:03;4.28;;;2.30;;
55069;SDS011;40967;52.070;8.596;2022-07-22T02:49:28;4.40;;;2.15;;
55069;SDS011;40967;52.070;8.596;2022-07-22T02:51:54;2.67;;;1.67;;
55069;SDS011;40967;52.070;8.596;2022-07-22T02:54:19;2.20;;;1.40;;
55069;SDS011;40967;52.070;8.596;2022-07-22T02:56:44;2.30;;;1.20;;
55069;SDS011;40967;52.070;8.596;2022-07-22T02:59:10;4.03;;;1.80;;
55069;SDS011;40967;52.070;8.596;2022-07-22T03:01:35;3.37;;;2.00;;
55069;SDS011;40967;52.070;8.596;2022-07-22T03:04:00;1.73;;;1.20;;
55069;SDS011;40967;52.070;8.596;2022-07-22T03:06:26;1.40;;;1.00;;
55069;SDS011;40967;52.070;8.596;2022-07-22T03:08:51;2.37;;;1.37;;
55069;SDS011;40967;52.070;8.596;2022-07-22T03:11:16;1.60;;;1.03;;
55069;SDS011;40967;52.070;8.596;2022-07-22T03:13:42;4.30;;;1.50;;
55069;SDS011;40967;52.070;8.596;2022-07-22T03:16:07;1.97;;;1.10;;
55069;SDS011;40967;52.070;8.596;2022-07-22T03:18:33;2.10;;;1.03;;
55069;SDS011;40967;52.070;8.596;2022-07-22T03:21:00;2.00;;;1.23;;
55069;SDS011;40967;52.070;8.596;2022-07-22T03:23:25;1.43;;;1.10;;
55069;SDS011;40967;52.070;8.596;2022-07-22T03:25:50;1.67;;;1.07;;
55069;SDS011;40967;52.070;8.596;2022-07-22T03:28:16;1.77;;;1.07;;
55069;SDS011;40967;52.070;8.596;2022-07-22T03:30:41;2.50;;;1.10;;
55069;SDS011;40967;52.070;8.596;2022-07-22T03:33:06;1.70;;;1.03;;
55069;SDS011;40967;52.070;8.596;2022-07-22T03:35:32;2.30;;;1.00;;
55069;SDS011;40967;52.070;8.596;2022-07-22T03:37:57;1.63;;;1.10;;
55069;SDS011;40967;52.070;8.596;2022-07-22T03:40:22;2.60;;;1.30;;
55069;SDS011;40967;52.070;8.596;2022-07-22T03:42:48;1.87;;;1.10;;
55069;SDS011;40967;52.070;8.596;2022-07-22T03:45:13;2.97;;;1.13;;
55069;SDS011;40967;52.070;8.596;2022-07-22T03:47:39;1.10;;;0.73;;
55069;SDS011;40967;52.070;8.596;2022-07-22T03:50:05;1.25;;;0.70;;
55069;SDS011;40967;52.070;8.596;2022-07-22T03:52:31;1.23;;;0.70;;
55069;SDS011;40967;52.070;8.596;2022-07-22T03:54:56;0.63;;;0.60;;
55069;SDS011;40967;52.070;8.596;2022-07-22T03:57:21;1.87;;;0.90;;
55069;SDS011;40967;52.070;8.596;2022-07-22T03:59:47;1.00;;;0.70;;
55069;SDS011;40967;52.070;8.596;2022-07-22T04:02:13;0.80;;;0.60;;
55069;SDS011;40967;52.070;8.596;2022-07-22T04:04:38;0.90;;;0.60;;
55069;SDS011;40967;52.070;8.596;2022-07-22T04:07:04;1.10;;;0.50;;
55069;SDS011;40967;52.070;8.596;2022-07-22T04:09:29;0.70;;;0.50;;
55069;SDS011;40967;52.070;8.596;2022-07-22T04:11:55;0.63;;;0.50;;
55069;SDS011;40967;52.070;8.596;2022-07-22T04:14:20;0.60;;;0.50;;
55069;SDS011;40967;52.070;8.596;2022-07-22T04:16:46;0.30;;;0.30;;
55069;SDS011;40967;52.070;8.596;2022-07-22T04:19:11;1.60;;;0.60;;
55069;SDS011;40967;52.070;8.596;2022-07-22T04:21:37;0.60;;;0.50;;
55069;SDS011;40967;52.070;8.596;2022-07-22T04:24:03;0.80;;;0.50;;
55069;SDS011;40967;52.070;8.596;2022-07-22T04:26:29;0.43;;;0.40;;
55069;SDS011;40967;52.070;8.596;2022-07-22T04:28:55;1.20;;;0.70;;
55069;SDS011;40967;52.070;8.596;2022-07-22T04:31:20;0.60;;;0.50;;
55069;SDS011;40967;52.070;8.596;2022-07-22T04:33:46;0.70;;;0.60;;
55069;SDS011;40967;52.070;8.596;2022-07-22T04:36:11;0.80;;;0.60;;
55069;SDS011;40967;52.070;8.596;2022-07-22T04:38:36;1.08;;;0.60;;
55069;SDS011;40967;52.070;8.596;2022-07-22T04:41:02;1.30;;;0.63;;
55069;SDS011;40967;52.070;8.596;2022-07-22T04:43:28;2.50;;;1.00;;
55069;SDS011;40967;52.070;8.596;2022-07-22T04:45:53;1.57;;;0.87;;
55069;SDS011;40967;52.070;8.596;2022-07-22T04:48:20;1.05;;;0.60;;
55069;SDS011;40967;52.070;8.596;2022-07-22T04:50:45;2.10;;;1.13;;
55069;SDS011;40967;52.070;8.596;2022-07-22T04:53:11;0.77;;;0.70;;
55069;SDS011;40967;52.070;8.596;2022-07-22T04:55:36;1.00;;;0.60;;
55069;SDS011;40967;52.070;8.596;2022-07-22T04:58:02;2.93;;;1.20;;
55069;SDS011;40967;52.070;8.596;2022-07-22T05:00:27;1.67;;;1.07;;
55069;SDS011;40967;52.070;8.596;2022-07-22T05:02:52;1.27;;;0.70;;
55069;SDS011;40967;52.070;8.596;2022-07-22T05:05:18;0.95;;;0.70;;
55069;SDS011;40967;52.070;8.596;2022-07-22T05:07:43;1.33;;;0.67;;
55069;SDS011;40967;52.070;8.596;2022-07-22T05:10:09;0.87;;;0.50;;
55069;SDS011;40967;52.070;8.596;2022-07-22T05:12:34;2.60;;;0.90;;
55069;SDS011;40967;52.070;8.596;2022-07-22T05:15:00;2.20;;;1.20;;
55069;SDS011;40967;52.070;8.596;2022-07-22T05:17:25;1.95;;;1.13;;
55069;SDS011;40967;52.070;8.596;2022-07-22T05:19:51;1.95;;;1.08;;
55069;SDS011;40967;52.070;8.596;2022-07-22T05:22:16;1.30;;;0.80;;
55069;SDS011;40967;52.070;8.596;2022-07-22T05:24:41;2.20;;;1.08;;
55069;SDS011;40967;52.070;8.596;2022-07-22T05:27:07;2.08;;;1.13;;
55069;SDS011;40967;52.070;8.596;2022-07-22T05:29:32;2.20;;;1.07;;
55069;SDS011;40967;52.070;8.596;2022-07-22T05:31:58;1.10;;;0.90;;
55069;SDS011;40967;52.070;8.596;2022-07-22T05:34:23;1.73;;;0.97;;
55069;SDS011;40967;52.070;8.596;2022-07-22T05:36:49;3.47;;;1.47;;
55069;SDS011;40967;52.070;8.596;2022-07-22T05:39:14;2.40;;;1.10;;
55069;SDS011;40967;52.070;8.596;2022-07-22T05:41:39;1.50;;;1.10;;
55069;SDS011;40967;52.070;8.596;2022-07-22T05:44:05;2.13;;;1.10;;
55069;SDS011;40967;52.070;8.596;2022-07-22T05:46:30;3.00;;;1.35;;
55069;SDS011;40967;52.070;8.596;2022-07-22T05:48:56;2.17;;;1.00;;
55069;SDS011;40967;52.070;8.596;2022-07-22T05:51:21;1.40;;;0.90;;
55069;SDS011;40967;52.070;8.596;2022-07-22T05:53:47;1.38;;;0.93;;
55069;SDS011;40967;52.070;8.596;2022-07-22T05:56:13;2.38;;;1.35;;
55069;SDS011;40967;52.070;8.596;2022-07-22T05:58:39;1.90;;;1.20;;
55069;SDS011;40967;52.070;8.596;2022-07-22T06:01:05;1.40;;;0.90;;
55069;SDS011;40967;52.070;8.596;2022-07-22T06:03:30;1.37;;;0.80;;
55069;SDS011;40967;52.070;8.596;2022-07-22T06:05:56;6.00;;;2.60;;
55069;SDS011;40967;52.070;8.596;2022-07-22T06:08:21;3.13;;;1.58;;
55069;SDS011;40967;52.070;8.596;2022-07-22T06:10:47;1.92;;;1.25;;
55069;SDS011;40967;52.070;8.596;2022-07-22T06:13:12;1.80;;;1.17;;
55069;SDS011;40967;52.070;8.596;2022-07-22T06:15:37;2.07;;;1.20;;
55069;SDS011;40967;52.070;8.596;2022-07-22T06:18:03;1.93;;;1.20;;
55069;SDS011;40967;52.070;8.596;2022-07-22T06:20:28;1.70;;;1.00;;
55069;SDS011;40967;52.070;8.596;2022-07-22T06:22:54;3.63;;;1.60;;
55069;SDS011;40967;52.070;8.596;2022-07-22T06:25:19;2.07;;;1.30;;
55069;SDS011;40967;52.070;8.596;2022-07-22T06:27:44;2.80;;;1.00;;
55069;SDS011;40967;52.070;8.596;2022-07-22T06:30:10;1.80;;;1.10;;
55069;SDS011;40967;52.070;8.596;2022-07-22T06:32:36;1.67;;;1.00;;
55069;SDS011;40967;52.070;8.596;2022-07-22T06:35:01;2.17;;;1.27;;
55069;SDS011;40967;52.070;8.596;2022-07-22T06:37:27;2.33;;;1.10;;
55069;SDS011;40967;52.070;8.596;2022-07-22T06:39:52;1.53;;;0.90;;
55069;SDS011;40967;52.070;8.596;2022-07-22T06:42:18;2.00;;;0.80;;
55069;SDS011;40967;52.070;8.596;2022-07-22T06:44:43;1.47;;;0.83;;
55069;SDS011;40967;52.070;8.596;2022-07-22T06:47:08;0.90;;;0.70;;
55069;SDS011;40967;52.070;8.596;2022-07-22T06:49:34;1.47;;;0.80;;
55069;SDS011;40967;52.070;8.596;2022-07-22T06:52:00;1.27;;;0.80;;
55069;SDS011;40967;52.070;8.596;2022-07-22T06:54:26;1.15;;;0.85;;
55069;SDS011;40967;52.070;8.596;2022-07-22T06:56:52;1.50;;;0.80;;
55069;SDS011;40967;52.070;8.596;2022-07-22T06:59:17;1.50;;;0.80;;
55069;SDS011;40967;52.070;8.596;2022-07-22T07:01:43;1.40;;;0.90;;
55069;SDS011;40967;52.070;8.596;2022-07-22T07:04:08;1.00;;;0.67;;
55069;SDS011;40967;52.070;8.596;2022-07-22T07:06:34;1.50;;;1.00;;
55069;SDS011;40967;52.070;8.596;2022-07-22T07:08:59;2.17;;;1.00;;
55069;SDS011;40967;52.070;8.596;2022-07-22T07:11:25;1.38;;;1.00;;
55069;SDS011;40967;52.070;8.596;2022-07-22T07:13:50;1.60;;;0.80;;
55069;SDS011;40967;52.070;8.596;2022-07-22T07:16:16;1.53;;;0.90;;
55069;SDS011;40967;52.070;8.596;2022-07-22T07:18:41;3.33;;;1.30;;
55069;SDS011;40967;52.070;8.596;2022-07-22T07:21:07;2.60;;;1.10;;
55069;SDS011;40967;52.070;8.596;2022-07-22T07:23:32;2.90;;;1.30;;
55069;SDS011;40967;52.070;8.596;2022-07-22T07:25:57;2.27;;;1.00;;
55069;SDS011;40967;52.070;8.596;2022-07-22T07:28:23;2.43;;;1.20;;
55069;SDS011;40967;52.070;8.596;2022-07-22T07:30:48;1.60;;;0.90;;
55069;SDS011;40967;52.070;8.596;2022-07-22T07:33:14;1.65;;;0.95;;
55069;SDS011;40967;52.070;8.596;2022-07-22T07:35:39;1.80;;;0.90;;
55069;SDS011;40967;52.070;8.596;2022-07-22T07:38:05;1.87;;;0.90;;
55069;SDS011;40967;52.070;8.596;2022-07-22T07:40:30;2.27;;;0.90;;
55069;SDS011;40967;52.070;8.596;2022-07-22T07:42:56;1.37;;;0.70;;
55069;SDS011;40967;52.070;8.596;2022-07-22T07:45:21;1.20;;;0.70;;
55069;SDS011;40967;52.070;8.596;2022-07-22T07:47:47;1.20;;;0.80;;
55069;SDS011;40967;52.070;8.596;2022-07-22T07:50:13;1.13;;;0.80;;
55069;SDS011;40967;52.070;8.596;2022-07-22T07:52:42;1.00;;;0.70;;
55069;SDS011;40967;52.070;8.596;2022-07-22T07:55:09;1.33;;;0.73;;
55069;SDS011;40967;52.070;8.596;2022-07-22T07:57:36;1.73;;;0.85;;
55069;SDS011;40967;52.070;8.596;2022-07-22T08:00:03;1.40;;;0.87;;
55069;SDS011;40967;52.070;8.596;2022-07-22T08:02:30;1.98;;;0.85;;
55069;SDS011;40967;52.070;8.596;2022-07-22T08:04:55;1.53;;;0.87;;
55069;SDS011;40967;52.070;8.596;2022-07-22T08:07:21;1.40;;;0.80;;
55069;SDS011;40967;52.070;8.596;2022-07-22T08:09:46;1.20;;;0.70;;
55069;SDS011;40967;52.070;8.596;2022-07-22T08:12:12;1.63;;;0.90;;
55069;SDS011;40967;52.070;8.596;2022-07-22T08:14:37;2.30;;;1.00;;
55069;SDS011;40967;52.070;8.596;2022-07-22T08:17:03;2.10;;;1.20;;
55069;SDS011;40967;52.070;8.596;2022-07-22T08:19:28;1.20;;;0.83;;
55069;SDS011;40967;52.070;8.596;2022-07-22T08:21:54;1.83;;;1.07;;
55069;SDS011;40967;52.070;8.596;2022-07-22T08:24:19;1.40;;;0.90;;
55069;SDS011;40967;52.070;8.596;2022-07-22T08:26:44;1.37;;;0.87;;
55069;SDS011;40967;52.070;8.596;2022-07-22T08:29:10;1.20;;;0.77;;
55069;SDS011;40967;52.070;8.596;2022-07-22T08:31:36;1.23;;;0.75;;
55069;SDS011;40967;52.070;8.596;2022-07-22T08:34:03;0.88;;;0.63;;
55069;SDS011;40967;52.070;8.596;2022-07-22T08:36:29;1.20;;;0.80;;
55069;SDS011;40967;52.070;8.596;2022-07-22T08:38:55;1.00;;;0.60;;
55069;SDS011;40967;52.070;8.596;2022-07-22T08:41:21;1.03;;;0.70;;
55069;SDS011;40967;52.070;8.596;2022-07-22T08:43:47;1.35;;;0.70;;
55069;SDS011;40967;52.070;8.596;2022-07-22T08:46:13;1.10;;;0.50;;
55069;SDS011;40967;52.070;8.596;2022-07-22T08:52:00;1.33;;;0.70;;
55069;SDS011;40967;52.070;8.596;2022-07-22T08:54:26;0.75;;;0.50;;
55069;SDS011;40967;52.070;8.596;2022-07-22T08:56:51;1.00;;;0.53;;
55069;SDS011;40967;52.070;8.596;2022-07-22T08:59:17;1.13;;;0.50;;
55069;SDS011;40967;52.070;8.596;2022-07-22T09:04:27;1.20;;;0.70;;
55069;SDS011;40967;52.070;8.596;2022-07-22T09:06:52;1.30;;;0.80;;
55069;SDS011;40967;52.070;8.596;2022-07-22T09:09:17;1.03;;;0.50;;
55069;SDS011;40967;52.070;8.596;2022-07-22T09:12:08;0.85;;;0.52;;
55069;SDS011;40967;52.070;8.596;2022-07-22T09:14:52;1.25;;;0.70;;
55069;SDS011;40967;52.070;8.596;2022-07-22T09:19:56;1.00;;;0.63;;
55069;SDS011;40967;52.070;8.596;2022-07-22T09:27:44;1.52;;;0.90;;
55069;SDS011;40967;52.070;8.596;2022-07-22T09:30:14;2.38;;;1.17;;
55069;SDS011;40967;52.070;8.596;2022-07-22T09:32:44;1.65;;;0.88;;
55069;SDS011;40967;52.070;8.596;2022-07-22T09:35:10;2.97;;;1.40;;
55069;SDS011;40967;52.070;8.596;2022-07-22T09:37:58;2.60;;;1.20;;
55069;SDS011;40967;52.070;8.596;2022-07-22T09:40:27;1.60;;;0.82;;
55069;SDS011;40967;52.070;8.596;2022-07-22T09:45:24;2.45;;;0.90;;
55069;SDS011;40967;52.070;8.596;2022-07-22T09:47:53;1.35;;;0.82;;
55069;SDS011;40967;52.070;8.596;2022-07-22T09:50:20;1.80;;;1.08;;
55069;SDS011;40967;52.070;8.596;2022-07-22T09:52:47;2.25;;;1.20;;
55069;SDS011;40967;52.070;8.596;2022-07-22T09:55:15;1.60;;;1.00;;
55069;SDS011;40967;52.070;8.596;2022-07-22T09:57:42;2.50;;;1.10;;
55069;SDS011;40967;52.070;8.596;2022-07-22T10:00:09;4.18;;;1.63;;
55069;SDS011;40967;52.070;8.596;2022-07-22T10:02:48;1.98;;;1.25;;
55069;SDS011;40967;52.070;8.596;2022-07-22T10:05:16;1.52;;;0.90;;
55069;SDS011;40967;52.070;8.596;2022-07-22T10:07:44;2.35;;;1.17;;
55069;SDS011;40967;52.070;8.596;2022-07-22T10:10:11;2.00;;;1.15;;
55069;SDS011;40967;52.070;8.596;2022-07-22T10:12:38;1.77;;;1.17;;
55069;SDS011;40967;52.070;8.596;2022-07-22T10:15:04;1.73;;;1.00;;
55069;SDS011;40967;52.070;8.596;2022-07-22T10:17:31;1.70;;;1.10;;
55069;SDS011;40967;52.070;8.596;2022-07-22T10:19:57;2.10;;;1.15;;
55069;SDS011;40967;52.070;8.596;2022-07-22T10:25:04;1.63;;;1.05;;
55069;SDS011;40967;52.070;8.596;2022-07-22T10:27:53;1.35;;;0.90;;
55069;SDS011;40967;52.070;8.596;2022-07-22T10:30:22;1.10;;;0.75;;
55069;SDS011;40967;52.070;8.596;2022-07-22T10:33:32;1.27;;;0.90;;
55069;SDS011;40967;52.070;8.596;2022-07-22T10:38:09;2.78;;;1.40;;
55069;SDS011;40967;52.070;8.596;2022-07-22T10:40:45;2.20;;;1.35;;
55069;SDS011;40967;52.070;8.596;2022-07-22T10:43:22;3.88;;;2.10;;
55069;SDS011;40967;52.070;8.596;2022-07-22T10:45:51;3.90;;;2.10;;
55069;SDS011;40967;52.070;8.596;2022-07-22T10:48:24;3.60;;;1.90;;
55069;SDS011;40967;52.070;8.596;2022-07-22T10:53:41;3.75;;;2.05;;
55069;SDS011;40967;52.070;8.596;2022-07-22T10:56:14;4.60;;;2.03;;
55069;SDS011;40967;52.070;8.596;2022-07-22T10:58:44;3.60;;;1.73;;
55069;SDS011;40967;52.070;8.596;2022-07-22T11:01:14;3.53;;;1.57;;
55069;SDS011;40967;52.070;8.596;2022-07-22T11:03:42;2.58;;;1.40;;
55069;SDS011;40967;52.070;8.596;2022-07-22T11:06:51;2.40;;;1.33;;
55069;SDS011;40967;52.070;8.596;2022-07-22T11:08:58;1.65;;;1.00;;
55069;SDS011;40967;52.070;8.596;2022-07-22T11:11:39;2.08;;;1.00;;
55069;SDS011;40967;52.070;8.596;2022-07-22T11:16:52;2.92;;;1.40;;
55069;SDS011;40967;52.070;8.596;2022-07-22T11:19:24;3.53;;;1.73;;
55069;SDS011;40967;52.070;8.596;2022-07-22T11:21:52;2.95;;;1.60;;
55069;SDS011;40967;52.070;8.596;2022-07-22T11:24:23;3.37;;;1.77;;
55069;SDS011;40967;52.070;8.596;2022-07-22T11:26:50;4.15;;;1.90;;
55069;SDS011;40967;52.070;8.596;2022-07-22T11:29:18;2.95;;;1.50;;
55069;SDS011;40967;52.070;8.596;2022-07-22T11:31:54;2.78;;;1.33;;
55069;SDS011;40967;52.070;8.596;2022-07-22T11:34:20;2.50;;;1.40;;
55069;SDS011;40967;52.070;8.596;2022-07-22T11:36:47;1.77;;;1.10;;
55069;SDS011;40967;52.070;8.596;2022-07-22T11:39:14;2.20;;;1.13;;
55069;SDS011;40967;52.070;8.596;2022-07-22T11:41:43;1.47;;;0.97;;
55069;SDS011;40967;52.070;8.596;2022-07-22T11:44:09;1.17;;;0.80;;
55069;SDS011;40967;52.070;8.596;2022-07-22T11:46:35;2.13;;;1.10;;
55069;SDS011;40967;52.070;8.596;2022-07-22T11:49:02;1.90;;;1.08;;
55069;SDS011;40967;52.070;8.596;2022-07-22T11:51:32;4.75;;;1.45;;
55069;SDS011;40967;52.070;8.596;2022-07-22T11:53:59;2.85;;;1.60;;
55069;SDS011;40967;52.070;8.596;2022-07-22T11:56:25;1.77;;;1.00;;
55069;SDS011;40967;52.070;8.596;2022-07-22T11:58:51;1.43;;;0.90;;
55069;SDS011;40967;52.070;8.596;2022-07-22T12:01:22;1.25;;;0.88;;
55069;SDS011;40967;52.070;8.596;2022-07-22T12:03:59;1.80;;;0.90;;
55069;SDS011;40967;52.070;8.596;2022-07-22T12:06:35;2.22;;;1.13;;
55069;SDS011;40967;52.070;8.596;2022-07-22T12:11:42;1.52;;;1.02;;
55069;SDS011;40967;52.070;8.596;2022-07-22T12:14:10;1.60;;;1.10;;
55069;SDS011;40967;52.070;8.596;2022-07-22T12:16:59;1.80;;;0.95;;
55069;SDS011;40967;52.070;8.596;2022-07-22T12:19:36;2.90;;;1.57;;
55069;SDS011;40967;52.070;8.596;2022-07-22T12:26:55;2.40;;;1.30;;
55069;SDS011;40967;52.070;8.596;2022-07-22T12:29:23;5.07;;;2.20;;
55069;SDS011;40967;52.070;8.596;2022-07-22T12:31:51;2.15;;;1.30;;
55069;SDS011;40967;52.070;8.596;2022-07-22T12:34:28;2.20;;;1.20;;
55069;SDS011;40967;52.070;8.596;2022-07-22T12:39:53;3.35;;;1.80;;
55069;SDS011;40967;52.070;8.596;2022-07-22T12:42:30;3.08;;;1.40;;
55069;SDS011;40967;52.070;8.596;2022-07-22T12:45:15;2.08;;;1.25;;
55069;SDS011;40967;52.070;8.596;2022-07-22T12:47:51;2.17;;;1.13;;
55069;SDS011;40967;52.070;8.596;2022-07-22T12:52:54;2.15;;;1.20;;
55069;SDS011;40967;52.070;8.596;2022-07-22T12:55:25;2.20;;;1.10;;
55069;SDS011;40967;52.070;8.596;2022-07-22T12:57:51;2.08;;;1.00;;
55069;SDS011;40967;52.070;8.596;2022-07-22T13:00:21;1.60;;;0.90;;
55069;SDS011;40967;52.070;8.596;2022-07-22T13:02:48;1.60;;;0.90;;
55069;SDS011;40967;52.070;8.596;2022-07-22T13:05:13;1.55;;;1.00;;
55069;SDS011;40967;52.070;8.596;2022-07-22T13:07:39;1.47;;;0.70;;
55069;SDS011;40967;52.070;8.596;2022-07-22T13:10:05;2.22;;;1.25;;
55069;SDS011;40967;52.070;8.596;2022-07-22T13:12:31;1.95;;;1.20;;
55069;SDS011;40967;52.070;8.596;2022-07-22T13:14:56;1.50;;;1.00;;
55069;SDS011;40967;52.070;8.596;2022-07-22T13:17:22;1.33;;;0.90;;
55069;SDS011;40967;52.070;8.596;2022-07-22T13:19:47;1.70;;;0.90;;
55069;SDS011;40967;52.070;8.596;2022-07-22T13:22:12;2.90;;;1.37;;
55069;SDS011;40967;52.070;8.596;2022-07-22T13:24:38;5.07;;;1.80;;
55069;SDS011;40967;52.070;8.596;2022-07-22T13:27:03;3.13;;;1.33;;
55069;SDS011;40967;52.070;8.596;2022-07-22T13:29:29;2.57;;;1.20;;
55069;SDS011;40967;52.070;8.596;2022-07-22T13:31:54;2.90;;;1.33;;
55069;SDS011;40967;52.070;8.596;2022-07-22T13:34:19;3.20;;;1.60;;
55069;SDS011;40967;52.070;8.596;2022-07-22T13:36:45;2.07;;;1.13;;
55069;SDS011;40967;52.070;8.596;2022-07-22T13:39:10;1.47;;;1.00;;
55069;SDS011;40967;52.070;8.596;2022-07-22T13:41:35;2.30;;;1.20;;
55069;SDS011;40967;52.070;8.596;2022-07-22T13:44:01;2.17;;;1.30;;
55069;SDS011;40967;52.070;8.596;2022-07-22T13:46:26;1.70;;;1.00;;
55069;SDS011;40967;52.070;8.596;2022-07-22T13:48:52;1.20;;;0.90;;
55069;SDS011;40967;52.070;8.596;2022-07-22T13:51:18;0.90;;;0.70;;
55069;SDS011;40967;52.070;8.596;2022-07-22T13:53:43;2.60;;;1.30;;
55069;SDS011;40967;52.070;8.596;2022-07-22T13:56:09;2.00;;;1.27;;
55069;SDS011;40967;52.070;8.596;2022-07-22T13:58:35;2.33;;;1.20;;
55069;SDS011;40967;52.070;8.596;2022-07-22T14:01:03;2.22;;;1.02;;
55069;SDS011;40967;52.070;8.596;2022-07-22T14:03:30;1.30;;;0.85;;
55069;SDS011;40967;52.070;8.596;2022-07-22T14:05:56;2.87;;;1.27;;
55069;SDS011;40967;52.070;8.596;2022-07-22T14:08:21;1.50;;;0.90;;
55069;SDS011;40967;52.070;8.596;2022-07-22T14:10:46;1.20;;;0.80;;
55069;SDS011;40967;52.070;8.596;2022-07-22T14:13:12;1.40;;;1.00;;
55069;SDS011;40967;52.070;8.596;2022-07-22T14:15:37;4.00;;;1.80;;
55069;SDS011;40967;52.070;8.596;2022-07-22T14:18:03;4.57;;;1.90;;
55069;SDS011;40967;52.070;8.596;2022-07-22T14:20:31;2.00;;;1.30;;
55069;SDS011;40967;52.070;8.596;2022-07-22T14:22:56;1.40;;;1.10;;
55069;SDS011;40967;52.070;8.596;2022-07-22T14:25:22;2.23;;;1.40;;
55069;SDS011;40967;52.070;8.596;2022-07-22T14:27:48;3.88;;;1.70;;
55069;SDS011;40967;52.070;8.596;2022-07-22T14:30:14;1.80;;;1.00;;
55069;SDS011;40967;52.070;8.596;2022-07-22T14:32:39;1.70;;;1.00;;
55069;SDS011;40967;52.070;8.596;2022-07-22T14:35:05;2.07;;;1.13;;
55069;SDS011;40967;52.070;8.596;2022-07-22T14:37:31;1.67;;;1.10;;
55069;SDS011;40967;52.070;8.596;2022-07-22T14:39:56;1.80;;;1.07;;
55069;SDS011;40967;52.070;8.596;2022-07-22T14:42:23;2.03;;;1.17;;
55069;SDS011;40967;52.070;8.596;2022-07-22T14:44:49;1.20;;;0.80;;
55069;SDS011;40967;52.070;8.596;2022-07-22T14:47:14;2.37;;;1.10;;
55069;SDS011;40967;52.070;8.596;2022-07-22T14:49:40;1.37;;;0.90;;
55069;SDS011;40967;52.070;8.596;2022-07-22T14:52:05;1.30;;;0.70;;
55069;SDS011;40967;52.070;8.596;2022-07-22T14:54:30;1.20;;;0.80;;
55069;SDS011;40967;52.070;8.596;2022-07-22T14:56:56;0.70;;;0.60;;
55069;SDS011;40967;52.070;8.596;2022-07-22T14:59:21;1.03;;;0.60;;
55069;SDS011;40967;52.070;8.596;2022-07-22T15:01:50;0.90;;;0.50;;
55069;SDS011;40967;52.070;8.596;2022-07-22T15:04:18;0.80;;;0.60;;
55069;SDS011;40967;52.070;8.596;2022-07-22T15:06:43;0.80;;;0.60;;
55069;SDS011;40967;52.070;8.596;2022-07-22T15:09:09;2.10;;;1.05;;
55069;SDS011;40967;52.070;8.596;2022-07-22T15:11:34;1.57;;;0.90;;
55069;SDS011;40967;52.070;8.596;2022-07-22T15:13:59;1.37;;;0.90;;
55069;SDS011;40967;52.070;8.596;2022-07-22T15:16:25;1.50;;;1.03;;
55069;SDS011;40967;52.070;8.596;2022-07-22T15:18:50;1.13;;;0.70;;
55069;SDS011;40967;52.070;8.596;2022-07-22T15:21:15;1.37;;;0.80;;
55069;SDS011;40967;52.070;8.596;2022-07-22T15:23:41;1.17;;;0.90;;
55069;SDS011;40967;52.070;8.596;2022-07-22T15:26:07;0.98;;;0.60;;